Time;durP1;ratioP1;P1;durP2;ratioP2;P2;SDS_P1;SDS_P2;PMS_P1;PMS_P2;Temp;Humidity;BMP_temperature;BMP_pressure;BME280_temperature;BME280_humidity;BME280_pressure;Samples;Min_cycle;Max_cycle;Signal;HPM_P1;HPM_P2
2023/09/08 00:01:29;;;;;;;9.00;7.35;;;;;;;;;;5013277;28;20538;-71
2023/09/08 00:03:54;;;;;;;8.80;7.18;;;;;;;;;;5009078;28;20557;-70
2023/09/08 00:06:20;;;;;;;10.98;8.27;;;;;;;;;;5010581;28;20230;-70
2023/09/08 00:08:45;;;;;;;10.70;8.13;;;;;;;;;;5004679;28;20371;-70
2023/09/08 00:11:10;;;;;;;8.48;7.40;;;;;;;;;;5007710;28;20225;-69
2023/09/08 00:13:35;;;;;;;11.27;8.05;;;;;;;;;;5005642;28;20226;-69
2023/09/08 00:16:01;;;;;;;9.02;7.70;;;;;;;;;;5009593;28;20175;-70
2023/09/08 00:18:26;;;;;;;9.98;8.13;;;;;;;;;;5006286;28;20198;-70
2023/09/08 00:20:51;;;;;;;10.77;7.60;;;;;;;;;;5009620;28;20171;-70
2023/09/08 00:23:16;;;;;;;11.38;7.97;;;;;;;;;;5000976;28;20171;-70
2023/09/08 00:25:42;;;;;;;9.98;8.40;;;;;;;;;;5009190;28;20257;-71
2023/09/08 00:28:07;;;;;;;8.77;7.25;;;;;;;;;;5016403;22;21413;-66
2023/09/08 00:30:33;;;;;;;9.73;7.78;;;;;;;;;;5012326;28;20219;-67
2023/09/08 00:32:58;;;;;;;15.05;8.95;;;;;;;;;;5012538;28;20253;-66
2023/09/08 00:35:23;;;;;;;11.48;8.55;;;;;;;;;;5013770;28;20163;-65
2023/09/08 00:37:49;;;;;;;12.65;9.30;;;;;;;;;;5011890;28;20178;-65
2023/09/08 00:40:14;;;;;;;11.18;9.15;;;;;;;;;;5011800;28;20190;-65
2023/09/08 00:42:39;;;;;;;13.02;8.63;;;;;;;;;;5007607;28;20236;-66
2023/09/08 00:45:05;;;;;;;11.23;10.00;;;;;;;;;;5012218;28;20581;-66
2023/09/08 00:47:30;;;;;;;11.13;8.15;;;;;;;;;;5013160;28;20606;-66
2023/09/08 00:49:55;;;;;;;14.43;8.85;;;;;;;;;;5004942;28;20691;-66
2023/09/08 00:52:21;;;;;;;11.07;7.47;;;;;;;;;;5011235;28;20942;-67
2023/09/08 00:54:46;;;;;;;10.95;9.00;;;;;;;;;;5010053;28;20171;-65
2023/09/08 00:57:11;;;;;;;10.43;9.27;;;;;;;;;;5016464;28;20687;-66
2023/09/08 00:59:37;;;;;;;11.02;8.43;;;;;;;;;;5007383;28;20250;-66
2023/09/08 01:02:02;;;;;;;13.77;9.60;;;;;;;;;;5011418;28;20190;-64
2023/09/08 01:04:28;;;;;;;13.02;10.15;;;;;;;;;;5018121;28;20191;-65
2023/09/08 01:06:54;;;;;;;13.80;10.00;;;;;;;;;;5013620;28;20186;-67
2023/09/08 01:09:19;;;;;;;16.15;10.30;;;;;;;;;;5012929;28;20206;-65
2023/09/08 01:11:45;;;;;;;11.20;9.07;;;;;;;;;;5014931;28;20170;-65
2023/09/08 01:14:13;;;;;;;14.18;9.90;;;;;;;;;;5014870;28;20222;-66
2023/09/08 01:16:39;;;;;;;11.48;9.23;;;;;;;;;;5007442;28;20171;-66
2023/09/08 01:19:06;;;;;;;11.27;9.38;;;;;;;;;;5002855;28;20962;-66
2023/09/08 01:21:50;;;;;;;12.10;8.48;;;;;;;;;;5009587;28;20290;-66
2023/09/08 01:24:41;;;;;;;10.77;8.50;;;;;;;;;;5000945;28;20202;-67
2023/09/08 01:27:07;;;;;;;13.30;10.05;;;;;;;;;;4999611;28;20677;-65
2023/09/08 01:29:33;;;;;;;8.88;7.95;;;;;;;;;;5008819;28;20299;-66
2023/09/08 01:32:00;;;;;;;11.88;9.05;;;;;;;;;;5011492;28;20195;-65
2023/09/08 01:34:25;;;;;;;14.27;9.27;;;;;;;;;;5006385;28;20718;-65
2023/09/08 01:36:51;;;;;;;12.70;10.20;;;;;;;;;;5002752;28;20270;-65
2023/09/08 01:39:16;;;;;;;11.88;9.80;;;;;;;;;;5009514;28;20203;-66
2023/09/08 01:41:41;;;;;;;14.18;10.15;;;;;;;;;;5007799;28;20215;-67
2023/09/08 01:44:10;;;;;;;13.52;9.80;;;;;;;;;;5004157;28;20715;-65
2023/09/08 01:46:35;;;;;;;12.18;9.63;;;;;;;;;;5006911;28;20171;-66
2023/09/08 01:49:01;;;;;;;12.70;8.80;;;;;;;;;;5001336;28;20716;-66
2023/09/08 01:51:26;;;;;;;12.60;9.30;;;;;;;;;;5008457;28;20225;-65
2023/09/08 01:53:51;;;;;;;15.45;8.95;;;;;;;;;;4998383;28;20184;-67
2023/09/08 01:56:16;;;;;;;12.57;9.45;;;;;;;;;;4995385;28;20187;-66
2023/09/08 01:58:41;;;;;;;11.50;9.23;;;;;;;;;;5007454;28;20201;-66
2023/09/08 02:01:07;;;;;;;10.77;8.27;;;;;;;;;;5008311;28;20179;-65
2023/09/08 02:03:32;;;;;;;12.05;8.65;;;;;;;;;;5001422;28;20171;-66
2023/09/08 02:05:57;;;;;;;9.88;8.65;;;;;;;;;;5009237;28;20182;-66
2023/09/08 02:08:22;;;;;;;10.00;8.57;;;;;;;;;;5011604;28;20202;-67
2023/09/08 02:10:48;;;;;;;13.48;10.00;;;;;;;;;;5001905;28;20199;-67
2023/09/08 02:13:13;;;;;;;10.93;8.85;;;;;;;;;;5003065;28;20184;-65
2023/09/08 02:15:38;;;;;;;9.52;8.15;;;;;;;;;;5010939;28;20209;-66
2023/09/08 02:18:03;;;;;;;12.55;9.50;;;;;;;;;;5010062;28;20685;-66
2023/09/08 02:20:29;;;;;;;13.63;9.52;;;;;;;;;;5004160;28;20198;-66
2023/09/08 02:22:54;;;;;;;12.15;9.80;;;;;;;;;;5011031;28;20265;-66
2023/09/08 02:25:19;;;;;;;14.30;9.98;;;;;;;;;;4995051;28;20250;-66
2023/09/08 02:27:45;;;;;;;14.10;9.27;;;;;;;;;;4999730;28;20601;-65
2023/09/08 02:30:10;;;;;;;14.50;9.75;;;;;;;;;;5004333;28;20210;-64
2023/09/08 02:32:35;;;;;;;11.95;9.90;;;;;;;;;;5000515;28;20175;-67
2023/09/08 02:35:00;;;;;;;13.00;9.80;;;;;;;;;;5007449;28;20210;-65
2023/09/08 02:37:26;;;;;;;11.52;10.10;;;;;;;;;;5001559;28;20705;-66
2023/09/08 02:39:51;;;;;;;13.88;10.90;;;;;;;;;;5004128;28;20211;-65
2023/09/08 02:42:16;;;;;;;13.30;10.07;;;;;;;;;;5007704;28;20197;-66
2023/09/08 02:44:41;;;;;;;12.70;10.30;;;;;;;;;;5000151;28;20194;-65
2023/09/08 02:47:06;;;;;;;12.25;10.25;;;;;;;;;;5016729;28;20224;-66
2023/09/08 02:49:32;;;;;;;15.38;9.65;;;;;;;;;;5004584;28;20298;-66
2023/09/08 02:51:57;;;;;;;14.50;10.00;;;;;;;;;;5010271;28;20193;-66
2023/09/08 02:54:22;;;;;;;12.20;10.25;;;;;;;;;;5009735;28;20175;-66
2023/09/08 02:56:48;;;;;;;15.45;11.90;;;;;;;;;;5005747;28;20179;-65
2023/09/08 02:59:13;;;;;;;13.30;11.05;;;;;;;;;;5005616;28;20223;-65
2023/09/08 03:01:38;;;;;;;14.02;10.95;;;;;;;;;;5002337;28;20186;-66
2023/09/08 03:04:03;;;;;;;14.02;10.63;;;;;;;;;;5000631;28;20210;-66
2023/09/08 03:06:28;;;;;;;12.80;9.73;;;;;;;;;;5008464;28;20185;-66
2023/09/08 03:08:54;;;;;;;12.65;10.85;;;;;;;;;;5006185;28;20219;-65
2023/09/08 03:11:19;;;;;;;13.70;10.93;;;;;;;;;;5004956;28;20478;-65
2023/09/08 03:13:44;;;;;;;15.32;10.65;;;;;;;;;;4992264;28;20168;-66
2023/09/08 03:16:10;;;;;;;14.15;10.68;;;;;;;;;;5009038;28;20181;-66
2023/09/08 03:18:36;;;;;;;15.10;10.73;;;;;;;;;;5009996;28;20190;-64
2023/09/08 03:21:08;;;;;;;13.13;11.38;;;;;;;;;;5015761;28;20178;-65
2023/09/08 03:23:34;;;;;;;13.77;11.07;;;;;;;;;;5012566;28;20738;-65
2023/09/08 03:25:59;;;;;;;14.50;11.50;;;;;;;;;;5008162;28;20221;-65
2023/09/08 03:28:24;;;;;;;14.90;10.95;;;;;;;;;;5011572;28;20301;-66
2023/09/08 03:30:49;;;;;;;15.55;11.15;;;;;;;;;;5005787;28;20294;-66
2023/09/08 03:33:15;;;;;;;12.95;10.80;;;;;;;;;;5017128;28;20262;-64
2023/09/08 03:35:40;;;;;;;14.30;11.95;;;;;;;;;;5011564;28;20633;-66
2023/09/08 03:38:05;;;;;;;13.98;11.40;;;;;;;;;;5014212;28;20195;-66
2023/09/08 03:40:30;;;;;;;16.13;11.48;;;;;;;;;;5009898;28;20656;-65
2023/09/08 03:42:55;;;;;;;12.68;9.98;;;;;;;;;;5016315;28;20183;-66
2023/09/08 03:45:21;;;;;;;11.95;9.88;;;;;;;;;;5016238;28;20647;-66
2023/09/08 03:47:46;;;;;;;12.40;9.88;;;;;;;;;;5016557;28;20578;-65
2023/09/08 03:50:11;;;;;;;13.35;10.70;;;;;;;;;;5014042;28;20418;-66
2023/09/08 03:52:36;;;;;;;16.48;11.68;;;;;;;;;;5011189;28;20208;-66
2023/09/08 03:55:02;;;;;;;12.63;10.05;;;;;;;;;;5005434;28;20180;-66
2023/09/08 03:57:27;;;;;;;13.35;10.40;;;;;;;;;;5007404;28;20688;-65
2023/09/08 03:59:52;;;;;;;18.20;11.98;;;;;;;;;;5003764;28;20243;-66
2023/09/08 04:02:18;;;;;;;13.95;9.82;;;;;;;;;;5011021;28;20543;-66
2023/09/08 04:04:43;;;;;;;15.18;10.68;;;;;;;;;;5015451;28;20189;-66
2023/09/08 04:07:08;;;;;;;14.43;11.73;;;;;;;;;;5014341;28;20384;-66
2023/09/08 04:09:33;;;;;;;15.02;10.68;;;;;;;;;;5016463;28;20203;-66
2023/09/08 04:11:58;;;;;;;17.38;12.40;;;;;;;;;;5014771;28;20254;-66
2023/09/08 04:14:26;;;;;;;19.30;11.70;;;;;;;;;;5007487;28;20183;-66
2023/09/08 04:16:52;;;;;;;15.35;11.82;;;;;;;;;;5011984;28;20167;-66
2023/09/08 04:19:17;;;;;;;13.70;11.07;;;;;;;;;;5016092;28;20275;-66
2023/09/08 04:21:42;;;;;;;13.43;11.55;;;;;;;;;;5016653;28;20175;-65
2023/09/08 04:24:10;;;;;;;15.02;11.65;;;;;;;;;;5016758;28;20273;-66
2023/09/08 04:26:35;;;;;;;16.23;13.13;;;;;;;;;;5011625;28;20210;-65
2023/09/08 04:29:00;;;;;;;15.20;12.32;;;;;;;;;;5013543;28;20293;-66
2023/09/08 04:31:26;;;;;;;14.38;11.32;;;;;;;;;;5008791;28;20179;-64
2023/09/08 04:33:53;;;;;;;16.02;12.93;;;;;;;;;;5004862;28;20186;-66
2023/09/08 04:36:18;;;;;;;14.45;11.70;;;;;;;;;;5012295;28;20171;-66
2023/09/08 04:38:44;;;;;;;19.98;12.50;;;;;;;;;;5005665;28;20191;-65
2023/09/08 04:41:09;;;;;;;17.13;13.07;;;;;;;;;;5004755;28;20531;-66
2023/09/08 04:43:34;;;;;;;16.88;13.50;;;;;;;;;;5006006;28;20583;-66
2023/09/08 04:46:02;;;;;;;14.55;11.18;;;;;;;;;;4994368;28;20744;-65
2023/09/08 04:48:28;;;;;;;20.58;13.40;;;;;;;;;;5007110;28;20482;-65
2023/09/08 04:50:53;;;;;;;21.45;12.07;;;;;;;;;;5016463;28;20217;-65
2023/09/08 04:53:18;;;;;;;18.45;13.73;;;;;;;;;;5019932;28;20309;-66
2023/09/08 04:55:43;;;;;;;14.13;12.25;;;;;;;;;;5019206;28;20183;-67
2023/09/08 04:58:09;;;;;;;18.27;14.13;;;;;;;;;;5009770;28;20211;-66
2023/09/08 05:00:34;;;;;;;19.98;12.98;;;;;;;;;;5001751;28;20225;-65
2023/09/08 05:02:59;;;;;;;16.83;13.45;;;;;;;;;;5007580;28;20183;-66
2023/09/08 05:05:24;;;;;;;16.23;12.90;;;;;;;;;;5010677;28;20190;-66
2023/09/08 05:07:50;;;;;;;18.45;13.05;;;;;;;;;;5011703;28;20681;-64
2023/09/08 05:10:16;;;;;;;19.25;15.00;;;;;;;;;;5004884;28;20652;-65
2023/09/08 05:12:41;;;;;;;18.95;13.65;;;;;;;;;;5008744;28;20187;-65
2023/09/08 05:15:10;;;;;;;19.05;14.55;;;;;;;;;;5007020;28;20212;-66
2023/09/08 05:17:35;;;;;;;16.55;12.73;;;;;;;;;;5011313;28;20179;-66
2023/09/08 05:20:01;;;;;;;20.05;14.40;;;;;;;;;;5005143;28;20214;-65
2023/09/08 05:22:26;;;;;;;16.75;13.52;;;;;;;;;;5009393;28;20183;-66
2023/09/08 05:24:51;;;;;;;17.08;12.00;;;;;;;;;;5011555;28;20171;-67
2023/09/08 05:27:16;;;;;;;21.23;14.82;;;;;;;;;;5007796;28;20171;-65
2023/09/08 05:29:42;;;;;;;15.63;12.55;;;;;;;;;;5005272;28;20696;-64
2023/09/08 05:32:07;;;;;;;16.42;12.45;;;;;;;;;;5004887;28;20187;-65
2023/09/08 05:34:32;;;;;;;18.02;14.82;;;;;;;;;;5007084;28;20175;-67
2023/09/08 05:36:57;;;;;;;25.83;15.07;;;;;;;;;;5011233;28;20278;-66
2023/09/08 05:39:22;;;;;;;19.00;13.90;;;;;;;;;;5008831;28;20223;-66
2023/09/08 05:41:48;;;;;;;19.05;13.52;;;;;;;;;;5003666;28;20183;-65
2023/09/08 05:44:13;;;;;;;18.02;14.63;;;;;;;;;;5005620;28;20260;-65
2023/09/08 05:46:38;;;;;;;18.67;12.48;;;;;;;;;;4997937;28;20599;-64
2023/09/08 05:49:03;;;;;;;18.88;13.57;;;;;;;;;;5006629;28;20215;-65
2023/09/08 05:51:29;;;;;;;18.70;13.68;;;;;;;;;;5004306;28;20184;-65
2023/09/08 05:53:55;;;;;;;18.00;14.68;;;;;;;;;;5007362;28;20175;-67
2023/09/08 05:56:20;;;;;;;17.45;14.50;;;;;;;;;;5006390;28;20203;-66
2023/09/08 05:58:46;;;;;;;18.20;13.43;;;;;;;;;;5011365;28;20202;-66
2023/09/08 06:01:11;;;;;;;18.90;15.48;;;;;;;;;;5002988;28;20550;-65
2023/09/08 06:03:36;;;;;;;23.48;15.10;;;;;;;;;;5014977;28;20189;-66
2023/09/08 06:06:01;;;;;;;18.35;14.05;;;;;;;;;;5009488;28;20183;-66
2023/09/08 06:08:26;;;;;;;24.25;15.18;;;;;;;;;;5009653;28;20665;-66
2023/09/08 06:10:52;;;;;;;20.02;15.07;;;;;;;;;;5005690;28;20273;-66
2023/09/08 06:13:17;;;;;;;17.38;13.65;;;;;;;;;;5013400;28;20228;-67
2023/09/08 06:15:42;;;;;;;17.50;14.82;;;;;;;;;;5010184;28;20182;-65
2023/09/08 06:18:08;;;;;;;16.55;13.98;;;;;;;;;;5011483;28;20202;-66
2023/09/08 06:20:33;;;;;;;17.83;13.88;;;;;;;;;;5008854;28;20174;-67
2023/09/08 06:22:58;;;;;;;20.10;13.43;;;;;;;;;;5010813;28;20186;-66
2023/09/08 06:25:23;;;;;;;23.17;14.68;;;;;;;;;;5006874;28;20183;-65
2023/09/08 06:27:48;;;;;;;21.70;14.25;;;;;;;;;;5013253;28;20182;-66
2023/09/08 06:30:16;;;;;;;19.77;12.80;;;;;;;;;;5023206;22;20230;-70
2023/09/08 06:32:41;;;;;;;19.90;14.23;;;;;;;;;;5007959;28;20175;-71
2023/09/08 06:35:07;;;;;;;16.25;13.02;;;;;;;;;;5011471;28;20591;-71
2023/09/08 06:37:36;;;;;;;14.50;12.02;;;;;;;;;;5010457;28;20240;-71
2023/09/08 06:40:01;;;;;;;13.07;11.43;;;;;;;;;;4999151;28;20199;-71
2023/09/08 06:42:26;;;;;;;17.30;12.02;;;;;;;;;;4986418;28;20262;-71
2023/09/08 06:44:52;;;;;;;19.15;13.23;;;;;;;;;;4991007;28;20179;-71
2023/09/08 06:47:17;;;;;;;16.50;12.15;;;;;;;;;;4991257;28;20195;-72
2023/09/08 06:49:42;;;;;;;19.42;13.10;;;;;;;;;;4991712;28;20219;-72
2023/09/08 06:52:07;;;;;;;18.98;13.27;;;;;;;;;;4991320;28;20329;-73
2023/09/08 06:54:32;;;;;;;15.50;12.85;;;;;;;;;;4992477;28;20271;-72
2023/09/08 06:56:58;;;;;;;16.50;11.63;;;;;;;;;;4992792;28;20278;-71
2023/09/08 06:59:23;;;;;;;17.23;12.40;;;;;;;;;;4991717;28;20251;-71
2023/09/08 07:01:48;;;;;;;15.50;11.45;;;;;;;;;;4986462;28;20437;-75
2023/09/08 07:04:13;;;;;;;16.88;12.93;;;;;;;;;;4986779;28;20180;-71
2023/09/08 07:06:41;;;;;;;16.10;12.32;;;;;;;;;;4991538;28;20592;-71
2023/09/08 07:09:06;;;;;;;16.83;12.88;;;;;;;;;;4992679;28;20210;-72
2023/09/08 07:11:32;;;;;;;18.70;12.60;;;;;;;;;;4992909;28;20176;-71
2023/09/08 07:13:57;;;;;;;14.18;12.13;;;;;;;;;;4993246;28;20274;-71
2023/09/08 07:16:22;;;;;;;14.65;12.23;;;;;;;;;;4992843;28;20312;-72
2023/09/08 07:18:47;;;;;;;17.60;13.60;;;;;;;;;;4999362;28;20199;-72
2023/09/08 07:21:13;;;;;;;16.15;12.68;;;;;;;;;;4994001;28;20175;-71
2023/09/08 07:23:38;;;;;;;17.58;12.50;;;;;;;;;;4992559;28;20705;-71
2023/09/08 07:26:03;;;;;;;13.35;10.25;;;;;;;;;;4994062;28;20182;-72
2023/09/08 07:28:29;;;;;;;15.40;12.90;;;;;;;;;;4991353;28;20206;-71
2023/09/08 07:31:00;;;;;;;24.83;13.65;;;;;;;;;;4992336;28;20708;-72
2023/09/08 07:33:25;;;;;;;16.75;13.32;;;;;;;;;;4987239;28;20202;-72
2023/09/08 07:35:50;;;;;;;14.00;11.25;;;;;;;;;;4992576;28;20531;-71
2023/09/08 07:38:15;;;;;;;17.33;13.30;;;;;;;;;;4993653;28;20488;-71
2023/09/08 07:40:41;;;;;;;16.35;12.43;;;;;;;;;;4998011;28;20226;-71
2023/09/08 07:43:06;;;;;;;15.07;11.40;;;;;;;;;;4993413;28;20227;-71
2023/09/08 07:45:31;;;;;;;13.35;11.80;;;;;;;;;;4993715;28;20167;-71
2023/09/08 07:47:57;;;;;;;15.35;11.48;;;;;;;;;;4991651;28;20239;-72
2023/09/08 07:50:26;;;;;;;15.23;12.30;;;;;;;;;;5006113;28;20207;-71
2023/09/08 07:52:52;;;;;;;14.93;12.52;;;;;;;;;;4999774;28;20398;-71
2023/09/08 07:55:18;;;;;;;15.60;12.93;;;;;;;;;;5001481;28;20669;-71
2023/09/08 07:57:44;;;;;;;13.45;12.05;;;;;;;;;;5003080;28;20175;-71
2023/09/08 08:00:12;;;;;;;15.18;12.10;;;;;;;;;;5002302;28;20206;-71
2023/09/08 08:02:41;;;;;;;17.38;12.82;;;;;;;;;;4998294;28;20313;-72
2023/09/08 08:05:07;;;;;;;17.38;13.23;;;;;;;;;;5002752;28;20172;-71
2023/09/08 08:07:32;;;;;;;15.52;13.02;;;;;;;;;;5001770;28;20182;-71
2023/09/08 08:09:57;;;;;;;12.27;11.07;;;;;;;;;;5001373;28;20215;-71
2023/09/08 08:12:22;;;;;;;15.00;12.18;;;;;;;;;;5001271;28;20174;-72
2023/09/08 08:14:47;;;;;;;23.08;12.27;;;;;;;;;;5000887;28;20227;-71
2023/09/08 08:17:13;;;;;;;14.43;12.37;;;;;;;;;;5001204;28;20179;-72
2023/09/08 08:19:38;;;;;;;18.42;13.90;;;;;;;;;;4999643;28;21018;-71
2023/09/08 08:22:03;;;;;;;21.48;11.50;;;;;;;;;;5004476;28;20269;-71
2023/09/08 08:24:28;;;;;;;20.50;13.63;;;;;;;;;;4997865;28;20657;-72
2023/09/08 08:26:54;;;;;;;16.40;12.13;;;;;;;;;;4994142;28;20188;-72
2023/09/08 08:29:19;;;;;;;18.55;12.32;;;;;;;;;;4994390;28;20948;-72
2023/09/08 08:31:44;;;;;;;13.90;12.03;;;;;;;;;;4996242;28;20187;-72
2023/09/08 08:34:09;;;;;;;11.53;10.00;;;;;;;;;;4996896;28;20568;-72
2023/09/08 08:36:35;;;;;;;14.97;11.83;;;;;;;;;;4997203;28;20493;-72
2023/09/08 08:39:00;;;;;;;15.25;12.95;;;;;;;;;;4995278;28;20937;-72
2023/09/08 08:41:25;;;;;;;19.25;11.32;;;;;;;;;;4996228;28;20183;-72
2023/09/08 08:43:51;;;;;;;16.40;11.40;;;;;;;;;;4993212;28;20180;-72
2023/09/08 08:46:17;;;;;;;14.38;12.93;;;;;;;;;;4995844;28;20187;-72
2023/09/08 08:48:44;;;;;;;14.75;11.80;;;;;;;;;;4991683;28;20194;-72
2023/09/08 08:51:10;;;;;;;14.25;11.00;;;;;;;;;;4995637;28;20210;-72
2023/09/08 08:53:37;;;;;;;14.18;11.73;;;;;;;;;;4995186;28;20168;-72
2023/09/08 08:56:03;;;;;;;15.43;12.88;;;;;;;;;;4993937;28;20175;-72
2023/09/08 08:58:28;;;;;;;11.82;10.57;;;;;;;;;;4989875;28;20265;-72
2023/09/08 09:00:56;;;;;;;15.20;12.65;;;;;;;;;;4991354;28;20183;-72
2023/09/08 09:03:22;;;;;;;12.65;11.30;;;;;;;;;;4994599;28;20178;-72
2023/09/08 09:05:47;;;;;;;14.70;10.57;;;;;;;;;;4990492;28;20179;-72
2023/09/08 09:08:14;;;;;;;13.98;12.13;;;;;;;;;;4990894;28;20172;-72
2023/09/08 09:10:39;;;;;;;12.55;11.10;;;;;;;;;;4991461;28;20192;-72
2023/09/08 09:13:05;;;;;;;15.23;12.80;;;;;;;;;;4984350;28;20187;-72
2023/09/08 09:15:32;;;;;;;14.25;11.73;;;;;;;;;;4992722;28;20483;-72
2023/09/08 09:18:07;;;;;;;12.88;10.40;;;;;;;;;;5008649;28;20263;-72
2023/09/08 09:20:33;;;;;;;13.77;11.48;;;;;;;;;;4995451;28;20206;-72
2023/09/08 09:22:58;;;;;;;14.88;11.93;;;;;;;;;;4997035;28;20650;-72
2023/09/08 09:25:24;;;;;;;13.40;11.48;;;;;;;;;;4998585;28;20259;-72
2023/09/08 09:27:54;;;;;;;12.65;11.23;;;;;;;;;;4993812;28;20207;-72
2023/09/08 09:30:19;;;;;;;14.98;12.65;;;;;;;;;;4986344;28;20208;-72
2023/09/08 09:32:44;;;;;;;13.77;12.15;;;;;;;;;;4990593;28;20183;-71
2023/09/08 09:35:09;;;;;;;12.27;11.00;;;;;;;;;;4994573;28;20645;-71
2023/09/08 09:37:35;;;;;;;13.43;11.20;;;;;;;;;;4991775;28;20182;-72
2023/09/08 09:40:01;;;;;;;13.40;12.00;;;;;;;;;;4989455;28;20246;-71
2023/09/08 09:42:27;;;;;;;12.15;11.00;;;;;;;;;;4994096;28;20176;-71
2023/09/08 09:44:53;;;;;;;13.48;11.95;;;;;;;;;;4990604;28;20188;-72
2023/09/08 09:47:18;;;;;;;14.50;11.05;;;;;;;;;;4992622;28;20217;-72
2023/09/08 09:49:45;;;;;;;13.60;11.48;;;;;;;;;;4993756;28;20242;-71
2023/09/08 09:52:14;;;;;;;13.50;11.50;;;;;;;;;;4994480;28;20218;-71
2023/09/08 09:54:42;;;;;;;13.02;11.13;;;;;;;;;;4994486;28;20172;-72
2023/09/08 09:57:11;;;;;;;11.85;10.55;;;;;;;;;;4994093;28;20262;-71
2023/09/08 09:59:37;;;;;;;14.48;11.60;;;;;;;;;;4993117;28;20212;-71
2023/09/08 10:02:02;;;;;;;13.70;11.05;;;;;;;;;;5001104;28;20647;-73
2023/09/08 10:04:28;;;;;;;14.18;11.25;;;;;;;;;;4992514;28;20194;-70
2023/09/08 10:06:54;;;;;;;14.75;10.77;;;;;;;;;;4991371;28;20257;-71
2023/09/08 10:09:19;;;;;;;13.73;11.35;;;;;;;;;;4994562;28;20206;-71
2023/09/08 10:11:48;;;;;;;11.70;10.50;;;;;;;;;;4994441;28;20210;-71
2023/09/08 10:14:18;;;;;;;10.48;8.63;;;;;;;;;;4993325;28;20229;-71
2023/09/08 10:16:44;;;;;;;10.95;9.52;;;;;;;;;;4991628;28;20182;-71
2023/09/08 10:19:10;;;;;;;11.05;9.10;;;;;;;;;;4991198;28;20203;-72
2023/09/08 10:21:39;;;;;;;10.85;9.75;;;;;;;;;;4992615;28;20175;-72
2023/09/08 10:24:23;;;;;;;10.10;8.45;;;;;;;;;;4985972;28;20215;-72
2023/09/08 10:26:58;;;;;;;15.10;10.95;;;;;;;;;;4991803;28;20232;-71
2023/09/08 10:29:24;;;;;;;11.05;9.68;;;;;;;;;;4988727;28;20238;-71
2023/09/08 10:31:50;;;;;;;13.63;9.10;;;;;;;;;;4991966;28;20171;-71
2023/09/08 10:34:15;;;;;;;11.45;10.27;;;;;;;;;;4985695;28;20179;-71
2023/09/08 10:36:41;;;;;;;10.77;8.80;;;;;;;;;;4985399;28;20579;-72
2023/09/08 10:39:24;;;;;;;9.52;8.48;;;;;;;;;;4989944;28;20194;-71
2023/09/08 10:41:50;;;;;;;9.80;8.80;;;;;;;;;;4987880;28;20179;-71
2023/09/08 10:44:16;;;;;;;8.60;7.10;;;;;;;;;;4991221;28;20278;-71
2023/09/08 10:46:41;;;;;;;9.77;7.72;;;;;;;;;;4980876;28;20222;-72
2023/09/08 10:49:07;;;;;;;8.43;7.53;;;;;;;;;;4989428;28;20739;-71
2023/09/08 10:51:33;;;;;;;10.32;7.72;;;;;;;;;;4985097;28;20416;-72
2023/09/08 10:53:58;;;;;;;7.90;7.07;;;;;;;;;;4985767;28;20182;-72
2023/09/08 10:56:27;;;;;;;7.57;6.33;;;;;;;;;;4991803;28;20182;-72
2023/09/08 10:58:54;;;;;;;7.30;6.43;;;;;;;;;;4991835;28;20452;-72
2023/09/08 11:01:22;;;;;;;12.57;7.63;;;;;;;;;;4990101;28;20222;-72
2023/09/08 11:03:49;;;;;;;9.20;7.90;;;;;;;;;;4991602;28;20622;-72
2023/09/08 11:06:18;;;;;;;7.35;6.50;;;;;;;;;;4989857;28;20181;-72
2023/09/08 11:08:44;;;;;;;7.88;6.07;;;;;;;;;;4991303;28;20187;-72
2023/09/08 11:11:13;;;;;;;8.63;7.18;;;;;;;;;;4991206;28;20273;-72
2023/09/08 11:13:41;;;;;;;9.00;7.03;;;;;;;;;;4990083;28;20241;-72
2023/09/08 11:16:07;;;;;;;10.93;8.10;;;;;;;;;;4990643;28;20186;-72
2023/09/08 11:18:33;;;;;;;11.50;8.63;;;;;;;;;;4990013;28;20216;-72
2023/09/08 11:21:00;;;;;;;8.80;6.78;;;;;;;;;;4985481;28;20193;-72
2023/09/08 11:23:25;;;;;;;9.40;7.57;;;;;;;;;;4991874;28;20191;-72
2023/09/08 11:25:51;;;;;;;8.40;7.53;;;;;;;;;;4991601;28;20191;-72
2023/09/08 11:28:21;;;;;;;9.68;7.82;;;;;;;;;;4952710;28;1131063;-72
2023/09/08 11:30:47;;;;;;;9.65;8.68;;;;;;;;;;4991360;28;20293;-72
2023/09/08 11:33:16;;;;;;;11.75;7.15;;;;;;;;;;4992327;28;20199;-72
2023/09/08 11:35:44;;;;;;;8.48;6.68;;;;;;;;;;4992700;28;20264;-72
2023/09/08 11:38:10;;;;;;;9.65;6.90;;;;;;;;;;4996641;28;20249;-72
2023/09/08 11:40:36;;;;;;;9.85;7.40;;;;;;;;;;4996790;28;20191;-72
2023/09/08 11:43:02;;;;;;;9.20;7.93;;;;;;;;;;4997869;28;20178;-72
2023/09/08 11:45:27;;;;;;;14.20;8.73;;;;;;;;;;4994848;28;20263;-71
2023/09/08 11:47:53;;;;;;;9.57;8.30;;;;;;;;;;4995648;28;20185;-72
2023/09/08 11:50:19;;;;;;;9.40;6.75;;;;;;;;;;4996036;28;20423;-72
2023/09/08 11:52:45;;;;;;;11.00;8.90;;;;;;;;;;4986509;28;20242;-72
2023/09/08 11:55:11;;;;;;;12.95;8.10;;;;;;;;;;4979090;28;20191;-72
2023/09/08 11:57:36;;;;;;;7.75;6.82;;;;;;;;;;4994732;28;20171;-72
2023/09/08 12:00:05;;;;;;;16.00;8.88;;;;;;;;;;4995200;28;20273;-72
2023/09/08 12:02:33;;;;;;;8.80;7.50;;;;;;;;;;4993266;28;20278;-72
2023/09/08 12:04:58;;;;;;;10.20;7.18;;;;;;;;;;4995044;28;20182;-72
2023/09/08 12:07:24;;;;;;;10.13;9.02;;;;;;;;;;4994562;28;20679;-72
2023/09/08 12:09:52;;;;;;;9.45;8.43;;;;;;;;;;4995189;28;20198;-72
2023/09/08 12:12:17;;;;;;;10.93;8.05;;;;;;;;;;4993732;28;20175;-70
2023/09/08 12:14:43;;;;;;;7.33;6.63;;;;;;;;;;4995541;28;20178;-71
2023/09/08 12:17:08;;;;;;;9.73;6.97;;;;;;;;;;4995269;28;20500;-72
2023/09/08 12:19:36;;;;;;;8.65;7.60;;;;;;;;;;4994649;28;20273;-71
2023/09/08 12:22:02;;;;;;;7.10;6.40;;;;;;;;;;4992863;28;20187;-72
2023/09/08 12:24:47;;;;;;;6.35;5.75;;;;;;;;;;4991388;28;20195;-71
2023/09/08 12:27:12;;;;;;;7.55;6.00;;;;;;;;;;4985703;28;20187;-72
2023/09/08 12:29:38;;;;;;;6.47;5.83;;;;;;;;;;5003160;22;20650;-69
2023/09/08 12:32:03;;;;;;;11.23;7.50;;;;;;;;;;5020065;28;20825;-69
2023/09/08 12:34:28;;;;;;;11.57;6.72;;;;;;;;;;5023193;28;20182;-68
2023/09/08 12:36:55;;;;;;;6.30;5.40;;;;;;;;;;5009416;28;20174;-67
2023/09/08 12:39:20;;;;;;;5.53;4.95;;;;;;;;;;5008037;28;20444;-69
2023/09/08 12:41:45;;;;;;;5.80;5.30;;;;;;;;;;5004489;28;20190;-67
2023/09/08 12:44:10;;;;;;;7.47;5.20;;;;;;;;;;5002789;28;20179;-69
2023/09/08 12:46:36;;;;;;;6.03;5.37;;;;;;;;;;4998684;28;20176;-69
2023/09/08 12:49:01;;;;;;;6.13;5.60;;;;;;;;;;5003775;28;20455;-68
2023/09/08 12:51:26;;;;;;;11.10;6.20;;;;;;;;;;4999108;28;20421;-69
2023/09/08 12:53:51;;;;;;;5.83;5.33;;;;;;;;;;4996079;28;20504;-70
2023/09/08 12:56:18;;;;;;;14.50;6.50;;;;;;;;;;5006409;28;20236;-69
2023/09/08 12:58:43;;;;;;;6.25;5.68;;;;;;;;;;5004986;28;20190;-69
2023/09/08 13:01:08;;;;;;;7.40;5.10;;;;;;;;;;5002516;28;20199;-69
2023/09/08 13:03:33;;;;;;;5.73;5.10;;;;;;;;;;4993961;28;20213;-69
2023/09/08 13:05:58;;;;;;;6.23;5.70;;;;;;;;;;4994954;28;20224;-69
2023/09/08 13:08:24;;;;;;;9.10;5.73;;;;;;;;;;5000742;28;21062;-69
2023/09/08 13:10:49;;;;;;;6.13;4.77;;;;;;;;;;4999000;28;20243;-70
2023/09/08 13:13:14;;;;;;;6.13;5.30;;;;;;;;;;5005750;28;20808;-69
2023/09/08 13:15:39;;;;;;;7.30;5.23;;;;;;;;;;5002044;28;20192;-70
2023/09/08 13:18:05;;;;;;;5.50;5.00;;;;;;;;;;4998254;28;20511;-69
2023/09/08 13:20:30;;;;;;;5.80;5.03;;;;;;;;;;4999657;28;20194;-69
2023/09/08 13:22:55;;;;;;;6.22;5.38;;;;;;;;;;5005837;28;20253;-69
2023/09/08 13:25:20;;;;;;;5.43;4.93;;;;;;;;;;4999608;28;20221;-68
2023/09/08 13:27:47;;;;;;;5.17;4.67;;;;;;;;;;4997338;28;20413;-70
2023/09/08 13:30:13;;;;;;;7.55;5.35;;;;;;;;;;5001804;28;20914;-68
2023/09/08 13:32:39;;;;;;;6.75;5.32;;;;;;;;;;5008603;28;20197;-69
2023/09/08 13:35:04;;;;;;;5.90;5.10;;;;;;;;;;5001531;28;20182;-69
2023/09/08 13:37:30;;;;;;;6.53;5.70;;;;;;;;;;4996497;28;20699;-69
2023/09/08 13:39:56;;;;;;;6.32;5.72;;;;;;;;;;4998819;28;20203;-69
2023/09/08 13:42:21;;;;;;;5.80;5.22;;;;;;;;;;4995196;28;20222;-69
2023/09/08 13:44:46;;;;;;;7.50;4.90;;;;;;;;;;5002852;28;20171;-69
2023/09/08 13:47:11;;;;;;;6.00;4.80;;;;;;;;;;5007128;28;20190;-69
2023/09/08 13:49:36;;;;;;;6.22;5.38;;;;;;;;;;5000154;28;20241;-68
2023/09/08 13:52:02;;;;;;;6.80;5.00;;;;;;;;;;4995186;28;20183;-70
2023/09/08 13:54:27;;;;;;;5.47;4.97;;;;;;;;;;5003113;28;20458;-69
2023/09/08 13:57:00;;;;;;;5.45;4.63;;;;;;;;;;5007048;28;20174;-68
2023/09/08 13:59:25;;;;;;;5.97;5.38;;;;;;;;;;4998916;28;20309;-69
2023/09/08 14:01:51;;;;;;;6.22;4.97;;;;;;;;;;4997147;28;20669;-70
2023/09/08 14:04:16;;;;;;;7.75;5.18;;;;;;;;;;4994911;28;20186;-68
2023/09/08 14:06:41;;;;;;;6.25;5.40;;;;;;;;;;5003274;28;20182;-69
2023/09/08 14:09:07;;;;;;;5.95;4.70;;;;;;;;;;5002969;28;20198;-69
2023/09/08 14:11:32;;;;;;;6.23;4.93;;;;;;;;;;5007051;28;20244;-69
2023/09/08 14:13:57;;;;;;;7.87;5.63;;;;;;;;;;5001936;28;20564;-69
2023/09/08 14:16:22;;;;;;;7.83;5.47;;;;;;;;;;4992033;28;20427;-69
2023/09/08 14:18:47;;;;;;;6.00;5.30;;;;;;;;;;4991241;28;20241;-69